sensor_id;sensor_type;location;lat;lon;timestamp;P1;durP1;ratioP1;P2;durP2;ratioP2
20020;SDS011;10171;42.694;23.318;2022-07-23T00:02:06;8.68;;;6.07;;
20020;SDS011;10171;42.694;23.318;2022-07-23T00:04:32;10.65;;;6.15;;
20020;SDS011;10171;42.694;23.318;2022-07-23T00:06:57;9.93;;;6.47;;
20020;SDS011;10171;42.694;23.318;2022-07-23T00:09:22;7.82;;;6.53;;
20020;SDS011;10171;42.694;23.318;2022-07-23T00:11:48;8.73;;;6.32;;
20020;SDS011;10171;42.694;23.318;2022-07-23T00:14:13;10.00;;;6.40;;
20020;SDS011;10171;42.694;23.318;2022-07-23T00:16:38;10.32;;;6.43;;
20020;SDS011;10171;42.694;23.318;2022-07-23T00:19:03;6.68;;;5.88;;
20020;SDS011;10171;42.694;23.318;2022-07-23T00:21:29;8.55;;;5.95;;
20020;SDS011;10171;42.694;23.318;2022-07-23T00:23:54;7.32;;;5.82;;
20020;SDS011;10171;42.694;23.318;2022-07-23T00:26:19;9.75;;;6.00;;
20020;SDS011;10171;42.694;23.318;2022-07-23T00:28:45;7.47;;;5.82;;
20020;SDS011;10171;42.694;23.318;2022-07-23T00:31:12;11.00;;;6.05;;
20020;SDS011;10171;42.694;23.318;2022-07-23T00:33:38;11.85;;;6.43;;
20020;SDS011;10171;42.694;23.318;2022-07-23T00:36:03;8.80;;;5.78;;
20020;SDS011;10171;42.694;23.318;2022-07-23T00:38:28;7.63;;;5.90;;
20020;SDS011;10171;42.694;23.318;2022-07-23T00:40:54;8.32;;;5.90;;
20020;SDS011;10171;42.694;23.318;2022-07-23T00:43:20;10.13;;;6.40;;
20020;SDS011;10171;42.694;23.318;2022-07-23T00:45:45;8.18;;;6.00;;
20020;SDS011;10171;42.694;23.318;2022-07-23T00:48:10;12.15;;;6.97;;
20020;SDS011;10171;42.694;23.318;2022-07-23T00:50:36;8.57;;;6.75;;
20020;SDS011;10171;42.694;23.318;2022-07-23T00:53:01;10.52;;;7.03;;
20020;SDS011;10171;42.694;23.318;2022-07-23T00:55:26;12.43;;;8.40;;
20020;SDS011;10171;42.694;23.318;2022-07-23T00:57:52;10.25;;;7.97;;
20020;SDS011;10171;42.694;23.318;2022-07-23T01:00:18;10.15;;;8.55;;
20020;SDS011;10171;42.694;23.318;2022-07-23T01:02:44;11.20;;;8.68;;
20020;SDS011;10171;42.694;23.318;2022-07-23T01:05:09;11.02;;;8.73;;
20020;SDS011;10171;42.694;23.318;2022-07-23T01:07:35;10.23;;;8.07;;
20020;SDS011;10171;42.694;23.318;2022-07-23T01:10:01;10.20;;;7.57;;
20020;SDS011;10171;42.694;23.318;2022-07-23T01:12:26;10.30;;;7.97;;
20020;SDS011;10171;42.694;23.318;2022-07-23T01:14:58;11.07;;;7.93;;
20020;SDS011;10171;42.694;23.318;2022-07-23T01:17:24;11.32;;;6.65;;
20020;SDS011;10171;42.694;23.318;2022-07-23T01:19:49;9.55;;;7.80;;
20020;SDS011;10171;42.694;23.318;2022-07-23T01:22:15;8.13;;;6.30;;
20020;SDS011;10171;42.694;23.318;2022-07-23T01:24:42;9.38;;;6.75;;
20020;SDS011;10171;42.694;23.318;2022-07-23T01:27:07;11.38;;;6.93;;
20020;SDS011;10171;42.694;23.318;2022-07-23T01:29:33;7.88;;;6.50;;
20020;SDS011;10171;42.694;23.318;2022-07-23T01:31:58;7.32;;;6.35;;
20020;SDS011;10171;42.694;23.318;2022-07-23T01:34:23;10.20;;;6.20;;
20020;SDS011;10171;42.694;23.318;2022-07-23T01:36:49;9.38;;;6.25;;
20020;SDS011;10171;42.694;23.318;2022-07-23T01:39:14;10.52;;;6.93;;
20020;SDS011;10171;42.694;23.318;2022-07-23T01:41:39;6.88;;;6.18;;
20020;SDS011;10171;42.694;23.318;2022-07-23T01:44:05;9.85;;;6.78;;
20020;SDS011;10171;42.694;23.318;2022-07-23T01:46:30;8.40;;;6.70;;
20020;SDS011;10171;42.694;23.318;2022-07-23T01:48:56;10.63;;;6.63;;
20020;SDS011;10171;42.694;23.318;2022-07-23T01:51:21;8.73;;;6.35;;
20020;SDS011;10171;42.694;23.318;2022-07-23T01:53:46;10.75;;;6.53;;
20020;SDS011;10171;42.694;23.318;2022-07-23T01:56:11;11.55;;;6.30;;
20020;SDS011;10171;42.694;23.318;2022-07-23T01:58:37;10.13;;;6.20;;
20020;SDS011;10171;42.694;23.318;2022-07-23T02:01:02;9.80;;;6.95;;
20020;SDS011;10171;42.694;23.318;2022-07-23T02:03:27;7.38;;;6.15;;
20020;SDS011;10171;42.694;23.318;2022-07-23T02:05:53;7.60;;;6.68;;
20020;SDS011;10171;42.694;23.318;2022-07-23T02:08:18;6.95;;;6.25;;
20020;SDS011;10171;42.694;23.318;2022-07-23T02:10:43;6.85;;;6.15;;
20020;SDS011;10171;42.694;23.318;2022-07-23T02:13:09;8.98;;;6.63;;
20020;SDS011;10171;42.694;23.318;2022-07-23T02:15:34;8.50;;;6.90;;
20020;SDS011;10171;42.694;23.318;2022-07-23T02:17:59;9.23;;;7.32;;
20020;SDS011;10171;42.694;23.318;2022-07-23T02:20:25;12.52;;;7.65;;
20020;SDS011;10171;42.694;23.318;2022-07-23T02:22:50;10.77;;;7.35;;
20020;SDS011;10171;42.694;23.318;2022-07-23T02:25:15;11.73;;;7.43;;
20020;SDS011;10171;42.694;23.318;2022-07-23T02:27:41;13.40;;;7.65;;
20020;SDS011;10171;42.694;23.318;2022-07-23T02:30:06;9.48;;;7.45;;
20020;SDS011;10171;42.694;23.318;2022-07-23T02:32:32;12.02;;;7.80;;
20020;SDS011;10171;42.694;23.318;2022-07-23T02:34:57;11.85;;;7.25;;
20020;SDS011;10171;42.694;23.318;2022-07-23T02:37:22;12.50;;;7.65;;
20020;SDS011;10171;42.694;23.318;2022-07-23T02:39:48;8.77;;;7.07;;
20020;SDS011;10171;42.694;23.318;2022-07-23T02:42:13;8.80;;;7.22;;
20020;SDS011;10171;42.694;23.318;2022-07-23T02:44:39;10.73;;;7.40;;
20020;SDS011;10171;42.694;23.318;2022-07-23T02:47:04;8.38;;;6.97;;
20020;SDS011;10171;42.694;23.318;2022-07-23T02:49:29;9.95;;;7.38;;
20020;SDS011;10171;42.694;23.318;2022-07-23T02:51:54;9.55;;;7.13;;
20020;SDS011;10171;42.694;23.318;2022-07-23T02:54:20;10.60;;;7.88;;
20020;SDS011;10171;42.694;23.318;2022-07-23T02:56:45;11.13;;;7.25;;
20020;SDS011;10171;42.694;23.318;2022-07-23T02:59:10;9.98;;;7.90;;
20020;SDS011;10171;42.694;23.318;2022-07-23T03:01:36;10.00;;;7.40;;
20020;SDS011;10171;42.694;23.318;2022-07-23T03:04:02;9.55;;;7.38;;
20020;SDS011;10171;42.694;23.318;2022-07-23T03:06:27;9.15;;;7.25;;
20020;SDS011;10171;42.694;23.318;2022-07-23T03:08:53;9.60;;;7.63;;
20020;SDS011;10171;42.694;23.318;2022-07-23T03:11:18;8.15;;;6.85;;
20020;SDS011;10171;42.694;23.318;2022-07-23T03:13:43;10.45;;;6.80;;
20020;SDS011;10171;42.694;23.318;2022-07-23T03:16:09;8.30;;;7.15;;
20020;SDS011;10171;42.694;23.318;2022-07-23T03:18:34;10.75;;;7.18;;
20020;SDS011;10171;42.694;23.318;2022-07-23T03:21:00;8.48;;;7.05;;
20020;SDS011;10171;42.694;23.318;2022-07-23T03:23:25;9.10;;;7.63;;
20020;SDS011;10171;42.694;23.318;2022-07-23T03:25:50;10.98;;;7.47;;
20020;SDS011;10171;42.694;23.318;2022-07-23T03:28:16;12.55;;;7.63;;
20020;SDS011;10171;42.694;23.318;2022-07-23T03:30:42;10.55;;;8.32;;
20020;SDS011;10171;42.694;23.318;2022-07-23T03:33:08;11.23;;;8.23;;
20020;SDS011;10171;42.694;23.318;2022-07-23T03:35:33;11.48;;;8.90;;
20020;SDS011;10171;42.694;23.318;2022-07-23T03:37:58;12.18;;;8.13;;
20020;SDS011;10171;42.694;23.318;2022-07-23T03:40:24;10.85;;;8.43;;
20020;SDS011;10171;42.694;23.318;2022-07-23T03:42:49;11.48;;;8.63;;
20020;SDS011;10171;42.694;23.318;2022-07-23T03:45:14;12.30;;;8.75;;
20020;SDS011;10171;42.694;23.318;2022-07-23T03:47:39;8.70;;;7.80;;
20020;SDS011;10171;42.694;23.318;2022-07-23T03:50:05;11.25;;;9.07;;
20020;SDS011;10171;42.694;23.318;2022-07-23T03:52:30;12.18;;;8.20;;
20020;SDS011;10171;42.694;23.318;2022-07-23T03:54:56;11.57;;;8.35;;
20020;SDS011;10171;42.694;23.318;2022-07-23T03:57:21;11.20;;;8.35;;
20020;SDS011;10171;42.694;23.318;2022-07-23T03:59:46;12.20;;;8.85;;
20020;SDS011;10171;42.694;23.318;2022-07-23T04:02:12;12.50;;;8.85;;
20020;SDS011;10171;42.694;23.318;2022-07-23T04:04:37;9.60;;;8.35;;
20020;SDS011;10171;42.694;23.318;2022-07-23T04:07:02;11.65;;;8.32;;
20020;SDS011;10171;42.694;23.318;2022-07-23T04:09:27;12.02;;;8.15;;
20020;SDS011;10171;42.694;23.318;2022-07-23T04:11:53;11.63;;;8.07;;
20020;SDS011;10171;42.694;23.318;2022-07-23T04:14:18;11.80;;;8.60;;
20020;SDS011;10171;42.694;23.318;2022-07-23T04:16:43;10.85;;;7.90;;
20020;SDS011;10171;42.694;23.318;2022-07-23T04:19:10;11.63;;;8.68;;
20020;SDS011;10171;42.694;23.318;2022-07-23T04:21:35;12.70;;;8.20;;
20020;SDS011;10171;42.694;23.318;2022-07-23T04:24:00;11.70;;;8.25;;
20020;SDS011;10171;42.694;23.318;2022-07-23T04:26:25;11.73;;;8.32;;
20020;SDS011;10171;42.694;23.318;2022-07-23T04:28:51;11.68;;;8.70;;
20020;SDS011;10171;42.694;23.318;2022-07-23T04:31:16;12.38;;;8.43;;
20020;SDS011;10171;42.694;23.318;2022-07-23T04:33:41;14.57;;;8.55;;
20020;SDS011;10171;42.694;23.318;2022-07-23T04:36:07;11.68;;;8.30;;
20020;SDS011;10171;42.694;23.318;2022-07-23T04:38:32;12.73;;;8.90;;
20020;SDS011;10171;42.694;23.318;2022-07-23T04:40:57;13.25;;;8.88;;
20020;SDS011;10171;42.694;23.318;2022-07-23T04:43:23;11.82;;;8.40;;
20020;SDS011;10171;42.694;23.318;2022-07-23T04:45:48;12.10;;;8.48;;
20020;SDS011;10171;42.694;23.318;2022-07-23T04:48:13;10.65;;;8.30;;
20020;SDS011;10171;42.694;23.318;2022-07-23T04:50:39;10.82;;;8.82;;
20020;SDS011;10171;42.694;23.318;2022-07-23T04:53:04;9.63;;;8.45;;
20020;SDS011;10171;42.694;23.318;2022-07-23T04:55:29;10.63;;;8.50;;
20020;SDS011;10171;42.694;23.318;2022-07-23T04:57:55;13.93;;;8.52;;
20020;SDS011;10171;42.694;23.318;2022-07-23T05:00:20;13.13;;;8.65;;
20020;SDS011;10171;42.694;23.318;2022-07-23T05:02:45;11.68;;;8.65;;
20020;SDS011;10171;42.694;23.318;2022-07-23T05:05:10;9.77;;;8.18;;
20020;SDS011;10171;42.694;23.318;2022-07-23T05:07:36;10.20;;;8.13;;
20020;SDS011;10171;42.694;23.318;2022-07-23T05:10:01;10.45;;;8.32;;
20020;SDS011;10171;42.694;23.318;2022-07-23T05:12:27;10.85;;;8.82;;
20020;SDS011;10171;42.694;23.318;2022-07-23T05:14:52;17.02;;;9.98;;
20020;SDS011;10171;42.694;23.318;2022-07-23T05:17:17;12.30;;;8.95;;
20020;SDS011;10171;42.694;23.318;2022-07-23T05:19:43;11.35;;;8.40;;
20020;SDS011;10171;42.694;23.318;2022-07-23T05:22:08;13.20;;;8.82;;
20020;SDS011;10171;42.694;23.318;2022-07-23T05:24:33;11.82;;;9.00;;
20020;SDS011;10171;42.694;23.318;2022-07-23T05:26:58;10.63;;;8.02;;
20020;SDS011;10171;42.694;23.318;2022-07-23T05:29:24;12.65;;;8.73;;
20020;SDS011;10171;42.694;23.318;2022-07-23T05:31:49;12.93;;;8.70;;
20020;SDS011;10171;42.694;23.318;2022-07-23T05:34:15;14.45;;;9.13;;
20020;SDS011;10171;42.694;23.318;2022-07-23T05:36:40;10.70;;;8.85;;
20020;SDS011;10171;42.694;23.318;2022-07-23T05:39:05;13.77;;;8.73;;
20020;SDS011;10171;42.694;23.318;2022-07-23T05:41:30;14.93;;;8.23;;
20020;SDS011;10171;42.694;23.318;2022-07-23T05:43:56;10.45;;;8.68;;
20020;SDS011;10171;42.694;23.318;2022-07-23T05:46:21;11.93;;;8.23;;
20020;SDS011;10171;42.694;23.318;2022-07-23T05:48:46;10.65;;;8.55;;
20020;SDS011;10171;42.694;23.318;2022-07-23T05:51:18;12.10;;;8.43;;
20020;SDS011;10171;42.694;23.318;2022-07-23T05:53:44;13.52;;;8.88;;
20020;SDS011;10171;42.694;23.318;2022-07-23T05:56:09;12.90;;;8.10;;
20020;SDS011;10171;42.694;23.318;2022-07-23T05:58:34;12.85;;;8.82;;
20020;SDS011;10171;42.694;23.318;2022-07-23T06:00:59;10.27;;;8.23;;
20020;SDS011;10171;42.694;23.318;2022-07-23T06:03:25;11.38;;;9.73;;
20020;SDS011;10171;42.694;23.318;2022-07-23T06:05:50;12.32;;;9.50;;
20020;SDS011;10171;42.694;23.318;2022-07-23T06:08:15;10.85;;;8.73;;
20020;SDS011;10171;42.694;23.318;2022-07-23T06:10:40;11.02;;;9.13;;
20020;SDS011;10171;42.694;23.318;2022-07-23T06:13:06;11.43;;;9.63;;
20020;SDS011;10171;42.694;23.318;2022-07-23T06:15:31;11.05;;;8.73;;
20020;SDS011;10171;42.694;23.318;2022-07-23T06:17:57;12.52;;;9.55;;
20020;SDS011;10171;42.694;23.318;2022-07-23T06:20:22;10.88;;;9.38;;
20020;SDS011;10171;42.694;23.318;2022-07-23T06:22:47;10.50;;;8.95;;
20020;SDS011;10171;42.694;23.318;2022-07-23T06:25:13;13.23;;;8.05;;
20020;SDS011;10171;42.694;23.318;2022-07-23T06:27:38;14.98;;;8.75;;
20020;SDS011;10171;42.694;23.318;2022-07-23T06:30:03;12.00;;;8.43;;
20020;SDS011;10171;42.694;23.318;2022-07-23T06:32:29;10.73;;;8.82;;
20020;SDS011;10171;42.694;23.318;2022-07-23T06:34:54;11.23;;;8.60;;
20020;SDS011;10171;42.694;23.318;2022-07-23T06:37:20;9.98;;;8.60;;
20020;SDS011;10171;42.694;23.318;2022-07-23T06:39:45;13.63;;;8.55;;
20020;SDS011;10171;42.694;23.318;2022-07-23T06:42:10;11.75;;;7.93;;
20020;SDS011;10171;42.694;23.318;2022-07-23T06:44:36;10.85;;;8.63;;
20020;SDS011;10171;42.694;23.318;2022-07-23T06:47:02;12.25;;;7.88;;
20020;SDS011;10171;42.694;23.318;2022-07-23T06:49:27;12.85;;;8.82;;
20020;SDS011;10171;42.694;23.318;2022-07-23T06:51:52;11.65;;;8.48;;
20020;SDS011;10171;42.694;23.318;2022-07-23T06:54:18;14.73;;;8.45;;
20020;SDS011;10171;42.694;23.318;2022-07-23T06:56:43;11.15;;;8.07;;
20020;SDS011;10171;42.694;23.318;2022-07-23T06:59:08;13.75;;;8.38;;
20020;SDS011;10171;42.694;23.318;2022-07-23T07:01:33;12.10;;;8.40;;
20020;SDS011;10171;42.694;23.318;2022-07-23T07:03:59;13.07;;;8.38;;
20020;SDS011;10171;42.694;23.318;2022-07-23T07:06:24;11.50;;;8.25;;
20020;SDS011;10171;42.694;23.318;2022-07-23T07:08:49;8.80;;;7.20;;
20020;SDS011;10171;42.694;23.318;2022-07-23T07:11:14;11.82;;;8.45;;
20020;SDS011;10171;42.694;23.318;2022-07-23T07:13:40;9.00;;;7.88;;
20020;SDS011;10171;42.694;23.318;2022-07-23T07:16:05;16.10;;;8.18;;
20020;SDS011;10171;42.694;23.318;2022-07-23T07:18:30;9.73;;;7.30;;
20020;SDS011;10171;42.694;23.318;2022-07-23T07:20:58;9.15;;;7.50;;
20020;SDS011;10171;42.694;23.318;2022-07-23T07:23:24;8.10;;;7.28;;
20020;SDS011;10171;42.694;23.318;2022-07-23T07:25:49;11.43;;;8.05;;
20020;SDS011;10171;42.694;23.318;2022-07-23T07:28:14;10.63;;;7.45;;
20020;SDS011;10171;42.694;23.318;2022-07-23T07:30:40;8.68;;;7.47;;
20020;SDS011;10171;42.694;23.318;2022-07-23T07:33:05;10.13;;;7.45;;
20020;SDS011;10171;42.694;23.318;2022-07-23T07:35:30;13.45;;;8.02;;
20020;SDS011;10171;42.694;23.318;2022-07-23T07:37:57;9.02;;;7.82;;
20020;SDS011;10171;42.694;23.318;2022-07-23T07:40:22;8.57;;;7.32;;
20020;SDS011;10171;42.694;23.318;2022-07-23T07:42:48;11.52;;;7.43;;
20020;SDS011;10171;42.694;23.318;2022-07-23T07:45:14;11.35;;;8.07;;
20020;SDS011;10171;42.694;23.318;2022-07-23T07:47:40;12.23;;;7.95;;
20020;SDS011;10171;42.694;23.318;2022-07-23T07:50:05;9.25;;;7.60;;
20020;SDS011;10171;42.694;23.318;2022-07-23T07:52:30;11.27;;;7.32;;
20020;SDS011;10171;42.694;23.318;2022-07-23T07:54:56;11.15;;;7.63;;
20020;SDS011;10171;42.694;23.318;2022-07-23T07:57:21;9.70;;;6.90;;
20020;SDS011;10171;42.694;23.318;2022-07-23T07:59:46;9.18;;;7.47;;
20020;SDS011;10171;42.694;23.318;2022-07-23T08:02:12;11.15;;;7.63;;
20020;SDS011;10171;42.694;23.318;2022-07-23T08:04:37;11.93;;;7.28;;
20020;SDS011;10171;42.694;23.318;2022-07-23T08:07:02;11.60;;;7.90;;
20020;SDS011;10171;42.694;23.318;2022-07-23T08:09:27;9.80;;;7.15;;
20020;SDS011;10171;42.694;23.318;2022-07-23T08:11:53;10.00;;;6.93;;
20020;SDS011;10171;42.694;23.318;2022-07-23T08:14:18;11.93;;;8.25;;
20020;SDS011;10171;42.694;23.318;2022-07-23T08:16:43;11.65;;;8.40;;
20020;SDS011;10171;42.694;23.318;2022-07-23T08:19:09;9.55;;;7.43;;
20020;SDS011;10171;42.694;23.318;2022-07-23T08:21:34;12.57;;;8.15;;
20020;SDS011;10171;42.694;23.318;2022-07-23T08:23:59;8.95;;;7.78;;
20020;SDS011;10171;42.694;23.318;2022-07-23T08:26:24;10.57;;;7.80;;
20020;SDS011;10171;42.694;23.318;2022-07-23T08:28:50;14.68;;;8.00;;
20020;SDS011;10171;42.694;23.318;2022-07-23T08:31:15;11.40;;;8.25;;
20020;SDS011;10171;42.694;23.318;2022-07-23T08:33:42;13.07;;;7.80;;
20020;SDS011;10171;42.694;23.318;2022-07-23T08:36:08;10.98;;;7.78;;
20020;SDS011;10171;42.694;23.318;2022-07-23T08:38:33;8.80;;;7.72;;
20020;SDS011;10171;42.694;23.318;2022-07-23T08:40:59;10.77;;;7.60;;
20020;SDS011;10171;42.694;23.318;2022-07-23T08:43:28;13.63;;;8.00;;
20020;SDS011;10171;42.694;23.318;2022-07-23T08:45:54;10.45;;;8.02;;
20020;SDS011;10171;42.694;23.318;2022-07-23T08:48:24;11.10;;;8.30;;
20020;SDS011;10171;42.694;23.318;2022-07-23T08:50:56;14.43;;;8.15;;
20020;SDS011;10171;42.694;23.318;2022-07-23T08:53:22;9.27;;;8.02;;
20020;SDS011;10171;42.694;23.318;2022-07-23T08:55:49;9.23;;;7.80;;
20020;SDS011;10171;42.694;23.318;2022-07-23T08:58:14;12.90;;;7.75;;
20020;SDS011;10171;42.694;23.318;2022-07-23T09:00:39;10.75;;;8.05;;
20020;SDS011;10171;42.694;23.318;2022-07-23T09:03:05;8.90;;;7.43;;
20020;SDS011;10171;42.694;23.318;2022-07-23T09:05:30;11.00;;;7.72;;
20020;SDS011;10171;42.694;23.318;2022-07-23T09:10:43;8.43;;;7.50;;
20020;SDS011;10171;42.694;23.318;2022-07-23T09:15:54;12.65;;;7.95;;
20020;SDS011;10171;42.694;23.318;2022-07-23T09:19:22;14.15;;;8.18;;
20020;SDS011;10171;42.694;23.318;2022-07-23T09:23:41;11.63;;;7.75;;
20020;SDS011;10171;42.694;23.318;2022-07-23T09:31:16;8.98;;;7.93;;
20020;SDS011;10171;42.694;23.318;2022-07-23T09:33:41;9.75;;;7.82;;
20020;SDS011;10171;42.694;23.318;2022-07-23T09:36:07;9.30;;;7.15;;
20020;SDS011;10171;42.694;23.318;2022-07-23T09:38:34;8.65;;;7.22;;
20020;SDS011;10171;42.694;23.318;2022-07-23T09:41:06;12.43;;;7.10;;
20020;SDS011;10171;42.694;23.318;2022-07-23T09:43:31;12.63;;;6.88;;
20020;SDS011;10171;42.694;23.318;2022-07-23T09:48:40;10.55;;;6.32;;
20020;SDS011;10171;42.694;23.318;2022-07-23T09:51:06;12.32;;;6.22;;
20020;SDS011;10171;42.694;23.318;2022-07-23T09:53:31;11.25;;;6.72;;
20020;SDS011;10171;42.694;23.318;2022-07-23T09:55:56;7.45;;;6.45;;
20020;SDS011;10171;42.694;23.318;2022-07-23T09:58:23;9.35;;;5.93;;
20020;SDS011;10171;42.694;23.318;2022-07-23T10:00:51;7.18;;;6.28;;
20020;SDS011;10171;42.694;23.318;2022-07-23T10:03:17;8.27;;;6.50;;
20020;SDS011;10171;42.694;23.318;2022-07-23T10:05:44;11.88;;;6.68;;
20020;SDS011;10171;42.694;23.318;2022-07-23T10:08:11;8.68;;;6.25;;
20020;SDS011;10171;42.694;23.318;2022-07-23T10:10:37;8.68;;;5.57;;
20020;SDS011;10171;42.694;23.318;2022-07-23T10:13:03;10.07;;;5.97;;
20020;SDS011;10171;42.694;23.318;2022-07-23T10:15:43;9.18;;;5.78;;
20020;SDS011;10171;42.694;23.318;2022-07-23T10:18:10;23.52;;;9.80;;
20020;SDS011;10171;42.694;23.318;2022-07-23T10:20:36;12.57;;;7.25;;
20020;SDS011;10171;42.694;23.318;2022-07-23T10:23:14;29.20;;;10.07;;
20020;SDS011;10171;42.694;23.318;2022-07-23T10:25:48;9.63;;;5.55;;
20020;SDS011;10171;42.694;23.318;2022-07-23T10:33:38;17.88;;;8.13;;
20020;SDS011;10171;42.694;23.318;2022-07-23T10:36:12;9.82;;;5.90;;
20020;SDS011;10171;42.694;23.318;2022-07-23T10:41:36;9.77;;;5.55;;
20020;SDS011;10171;42.694;23.318;2022-07-23T10:46:32;7.63;;;5.60;;
20020;SDS011;10171;42.694;23.318;2022-07-23T10:49:20;8.80;;;6.20;;
20020;SDS011;10171;42.694;23.318;2022-07-23T10:54:30;8.63;;;5.90;;
20020;SDS011;10171;42.694;23.318;2022-07-23T10:59:23;9.60;;;6.05;;
20020;SDS011;10171;42.694;23.318;2022-07-23T11:01:49;8.02;;;5.55;;
20020;SDS011;10171;42.694;23.318;2022-07-23T11:04:14;10.48;;;5.00;;
20020;SDS011;10171;42.694;23.318;2022-07-23T11:15:02;9.38;;;5.15;;
20020;SDS011;10171;42.694;23.318;2022-07-23T11:17:28;10.38;;;4.45;;
20020;SDS011;10171;42.694;23.318;2022-07-23T11:25:00;7.22;;;5.65;;
20020;SDS011;10171;42.694;23.318;2022-07-23T11:27:47;10.63;;;5.55;;
20020;SDS011;10171;42.694;23.318;2022-07-23T11:30:36;12.73;;;5.05;;
20020;SDS011;10171;42.694;23.318;2022-07-23T11:35:34;10.95;;;5.30;;
20020;SDS011;10171;42.694;23.318;2022-07-23T11:38:04;10.63;;;4.53;;
20020;SDS011;10171;42.694;23.318;2022-07-23T11:40:29;7.85;;;4.95;;
20020;SDS011;10171;42.694;23.318;2022-07-23T11:42:56;12.00;;;4.13;;
20020;SDS011;10171;42.694;23.318;2022-07-23T11:45:24;9.23;;;4.57;;
20020;SDS011;10171;42.694;23.318;2022-07-23T11:47:50;10.57;;;4.60;;
20020;SDS011;10171;42.694;23.318;2022-07-23T11:50:16;7.32;;;4.00;;
20020;SDS011;10171;42.694;23.318;2022-07-23T11:52:41;8.68;;;4.40;;
20020;SDS011;10171;42.694;23.318;2022-07-23T11:55:07;8.15;;;4.43;;
20020;SDS011;10171;42.694;23.318;2022-07-23T11:57:37;13.18;;;5.15;;
20020;SDS011;10171;42.694;23.318;2022-07-23T12:02:28;14.10;;;5.32;;
20020;SDS011;10171;42.694;23.318;2022-07-23T12:04:53;9.82;;;5.13;;
20020;SDS011;10171;42.694;23.318;2022-07-23T12:07:38;10.52;;;4.65;;
20020;SDS011;10171;42.694;23.318;2022-07-23T12:10:14;12.38;;;4.60;;
20020;SDS011;10171;42.694;23.318;2022-07-23T12:12:41;8.60;;;4.85;;
20020;SDS011;10171;42.694;23.318;2022-07-23T12:15:07;7.85;;;4.30;;
20020;SDS011;10171;42.694;23.318;2022-07-23T12:17:34;10.90;;;5.60;;
20020;SDS011;10171;42.694;23.318;2022-07-23T12:19:59;11.52;;;4.88;;
20020;SDS011;10171;42.694;23.318;2022-07-23T12:22:26;9.13;;;4.70;;
20020;SDS011;10171;42.694;23.318;2022-07-23T12:24:59;10.07;;;4.80;;
20020;SDS011;10171;42.694;23.318;2022-07-23T12:27:24;8.13;;;5.43;;
20020;SDS011;10171;42.694;23.318;2022-07-23T12:29:50;11.73;;;5.25;;
20020;SDS011;10171;42.694;23.318;2022-07-23T12:32:20;10.75;;;4.80;;
20020;SDS011;10171;42.694;23.318;2022-07-23T12:34:45;10.80;;;4.93;;
20020;SDS011;10171;42.694;23.318;2022-07-23T12:37:27;7.10;;;4.55;;
20020;SDS011;10171;42.694;23.318;2022-07-23T12:39:52;9.32;;;5.13;;
20020;SDS011;10171;42.694;23.318;2022-07-23T12:42:17;12.63;;;4.35;;
20020;SDS011;10171;42.694;23.318;2022-07-23T12:45:02;11.57;;;4.90;;
20020;SDS011;10171;42.694;23.318;2022-07-23T12:47:27;13.88;;;5.03;;
20020;SDS011;10171;42.694;23.318;2022-07-23T12:49:52;11.95;;;5.45;;
20020;SDS011;10171;42.694;23.318;2022-07-23T12:52:18;8.68;;;5.60;;
20020;SDS011;10171;42.694;23.318;2022-07-23T12:54:43;10.93;;;4.85;;
20020;SDS011;10171;42.694;23.318;2022-07-23T12:57:09;10.73;;;5.22;;
20020;SDS011;10171;42.694;23.318;2022-07-23T12:59:34;13.13;;;5.40;;
20020;SDS011;10171;42.694;23.318;2022-07-23T13:01:59;7.32;;;4.85;;
20020;SDS011;10171;42.694;23.318;2022-07-23T13:04:25;10.18;;;4.80;;
20020;SDS011;10171;42.694;23.318;2022-07-23T13:06:51;11.35;;;4.90;;
20020;SDS011;10171;42.694;23.318;2022-07-23T13:09:18;13.38;;;4.60;;
20020;SDS011;10171;42.694;23.318;2022-07-23T13:11:44;9.65;;;3.95;;
20020;SDS011;10171;42.694;23.318;2022-07-23T13:14:10;9.50;;;4.22;;
20020;SDS011;10171;42.694;23.318;2022-07-23T13:16:35;10.95;;;4.50;;
20020;SDS011;10171;42.694;23.318;2022-07-23T13:19:01;11.20;;;5.45;;
20020;SDS011;10171;42.694;23.318;2022-07-23T13:21:26;13.73;;;4.50;;
20020;SDS011;10171;42.694;23.318;2022-07-23T13:23:52;8.98;;;4.40;;
20020;SDS011;10171;42.694;23.318;2022-07-23T13:26:17;14.93;;;5.10;;
20020;SDS011;10171;42.694;23.318;2022-07-23T13:28:43;7.78;;;4.30;;
20020;SDS011;10171;42.694;23.318;2022-07-23T13:31:08;7.50;;;4.80;;
20020;SDS011;10171;42.694;23.318;2022-07-23T13:33:33;10.85;;;5.25;;
20020;SDS011;10171;42.694;23.318;2022-07-23T13:35:59;7.28;;;4.72;;
20020;SDS011;10171;42.694;23.318;2022-07-23T13:38:24;6.90;;;4.57;;
20020;SDS011;10171;42.694;23.318;2022-07-23T13:40:50;7.38;;;3.97;;
20020;SDS011;10171;42.694;23.318;2022-07-23T13:43:16;14.40;;;5.30;;
20020;SDS011;10171;42.694;23.318;2022-07-23T13:45:42;11.07;;;4.47;;
20020;SDS011;10171;42.694;23.318;2022-07-23T13:48:08;9.68;;;4.95;;
20020;SDS011;10171;42.694;23.318;2022-07-23T13:50:34;9.90;;;5.30;;
20020;SDS011;10171;42.694;23.318;2022-07-23T13:53:06;8.20;;;5.38;;
20020;SDS011;10171;42.694;23.318;2022-07-23T13:55:33;8.52;;;4.45;;
20020;SDS011;10171;42.694;23.318;2022-07-23T13:57:58;9.73;;;5.05;;
20020;SDS011;10171;42.694;23.318;2022-07-23T14:00:24;9.68;;;4.72;;
20020;SDS011;10171;42.694;23.318;2022-07-23T14:02:49;12.23;;;4.93;;
20020;SDS011;10171;42.694;23.318;2022-07-23T14:05:15;8.15;;;4.30;;
20020;SDS011;10171;42.694;23.318;2022-07-23T14:07:40;8.75;;;4.65;;
20020;SDS011;10171;42.694;23.318;2022-07-23T14:10:07;8.77;;;4.70;;
20020;SDS011;10171;42.694;23.318;2022-07-23T14:12:33;9.45;;;4.95;;
20020;SDS011;10171;42.694;23.318;2022-07-23T14:14:58;8.00;;;4.32;;
20020;SDS011;10171;42.694;23.318;2022-07-23T14:17:24;10.52;;;4.90;;
20020;SDS011;10171;42.694;23.318;2022-07-23T14:19:49;9.60;;;4.55;;
20020;SDS011;10171;42.694;23.318;2022-07-23T14:22:15;8.70;;;4.60;;
20020;SDS011;10171;42.694;23.318;2022-07-23T14:24:40;11.27;;;5.25;;
20020;SDS011;10171;42.694;23.318;2022-07-23T14:27:06;9.00;;;4.90;;
20020;SDS011;10171;42.694;23.318;2022-07-23T14:29:31;11.05;;;4.72;;
20020;SDS011;10171;42.694;23.318;2022-07-23T14:31:57;9.52;;;4.68;;
20020;SDS011;10171;42.694;23.318;2022-07-23T14:34:22;10.80;;;4.90;;
20020;SDS011;10171;42.694;23.318;2022-07-23T14:36:48;11.57;;;4.93;;
20020;SDS011;10171;42.694;23.318;2022-07-23T14:39:13;8.85;;;4.28;;
20020;SDS011;10171;42.694;23.318;2022-07-23T14:41:38;6.43;;;4.47;;
20020;SDS011;10171;42.694;23.318;2022-07-23T14:44:04;7.93;;;4.50;;
20020;SDS011;10171;42.694;23.318;2022-07-23T14:46:30;8.25;;;4.47;;
20020;SDS011;10171;42.694;23.318;2022-07-23T14:48:55;8.95;;;4.65;;
20020;SDS011;10171;42.694;23.318;2022-07-23T14:51:21;10.20;;;4.85;;
20020;SDS011;10171;42.694;23.318;2022-07-23T14:53:46;13.10;;;4.65;;
20020;SDS011;10171;42.694;23.318;2022-07-23T14:56:11;8.82;;;4.95;;
20020;SDS011;10171;42.694;23.318;2022-07-23T14:58:38;10.73;;;4.40;;
20020;SDS011;10171;42.694;23.318;2022-07-23T15:01:03;7.80;;;4.60;;
20020;SDS011;10171;42.694;23.318;2022-07-23T15:03:28;8.98;;;4.38;;
20020;SDS011;10171;42.694;23.318;2022-07-23T15:05:54;11.25;;;4.68;;
20020;SDS011;10171;42.694;23.318;2022-07-23T15:08:19;12.75;;;5.15;;
20020;SDS011;10171;42.694;23.318;2022-07-23T15:10:44;8.35;;;4.65;;